Time;durP1;ratioP1;P1;durP2;ratioP2;P2;SDS_P1;SDS_P2;PMS_P1;PMS_P2;Temp;Humidity;BMP_temperature;BMP_pressure;BME280_temperature;BME280_humidity;BME280_pressure;Samples;Min_cycle;Max_cycle;Signal;HPM_P1;HPM_P2
2023/01/20 00:00:41;;;;;;;;;;;-0.20;99.90;;;;;;5127589;28;20223;-69
2023/01/20 00:03:09;;;;;;;;;;;-0.20;99.90;;;;;;5127289;28;19979;-69
2023/01/20 00:05:35;;;;;;;;;;;-0.20;99.90;;;;;;5127386;28;19926;-69
2023/01/20 00:08:02;;;;;;;;;;;-0.10;99.90;;;;;;5126851;28;19926;-69
2023/01/20 00:10:28;;;;;;;;;;;-0.10;99.90;;;;;;5127432;28;19959;-69
2023/01/20 00:12:55;;;;;;;;;;;-0.10;99.90;;;;;;5127144;28;20026;-69
2023/01/20 00:15:22;;;;;;;;;;;-0.10;99.90;;;;;;5127207;28;19961;-69
2023/01/20 00:17:48;;;;;;;;;;;-0.10;99.90;;;;;;5126852;28;19982;-69
2023/01/20 00:20:16;;;;;;;;;;;-0.10;99.90;;;;;;5127063;28;19920;-69
2023/01/20 00:22:43;;;;;;;;;;;0.00;99.90;;;;;;5127073;28;19919;-69
2023/01/20 00:25:10;;;;;;;;;;;-0.10;99.90;;;;;;5127162;28;20183;-69
2023/01/20 00:27:37;;;;;;;;;;;-0.10;99.90;;;;;;5126131;28;19920;-70
2023/01/20 00:30:04;;;;;;;;;;;-0.10;99.90;;;;;;5127190;28;19958;-69
2023/01/20 00:32:30;;;;;;;;;;;-0.10;99.90;;;;;;5127144;28;19919;-69
2023/01/20 00:34:57;;;;;;;;;;;-0.10;99.90;;;;;;5126699;28;19962;-69
2023/01/20 00:37:25;;;;;;;;;;;-0.10;99.90;;;;;;5126414;28;19996;-69
2023/01/20 00:39:51;;;;;;;;;;;-0.10;99.90;;;;;;5125431;28;19955;-69
2023/01/20 00:42:18;;;;;;;;;;;-0.10;99.90;;;;;;5126947;28;19978;-69
2023/01/20 00:44:45;;;;;;;;;;;-0.10;99.90;;;;;;5126478;28;19974;-69
2023/01/20 00:47:11;;;;;;;;;;;-0.10;99.90;;;;;;5126380;28;19962;-69
2023/01/20 00:49:38;;;;;;;;;;;-0.10;99.90;;;;;;5126769;28;19951;-69
2023/01/20 00:52:05;;;;;;;;;;;-0.10;99.90;;;;;;5126397;28;19926;-69
2023/01/20 00:54:33;;;;;;;;;;;-0.10;99.90;;;;;;5126657;28;19983;-69
2023/01/20 00:56:59;;;;;;;;;;;-0.10;99.90;;;;;;5125952;28;19995;-69
2023/01/20 00:59:26;;;;;;;;;;;-0.10;99.90;;;;;;5126598;28;20176;-69
2023/01/20 01:01:52;;;;;;;;;;;-0.10;99.90;;;;;;5126537;28;19990;-69
2023/01/20 01:04:19;;;;;;;;;;;-0.20;99.90;;;;;;5126286;28;19947;-68
2023/01/20 01:06:46;;;;;;;;;;;-0.10;99.90;;;;;;5125775;28;19983;-69
2023/01/20 01:09:12;;;;;;;;;;;-0.20;99.90;;;;;;5126024;28;19951;-69
2023/01/20 01:11:40;;;;;;;;;;;-0.20;99.90;;;;;;5126452;28;19983;-69
2023/01/20 01:14:07;;;;;;;;;;;-0.20;99.90;;;;;;5126027;28;19920;-69
2023/01/20 01:16:33;;;;;;;;;;;-0.20;99.90;;;;;;5125507;28;19920;-69
2023/01/20 01:19:00;;;;;;;;;;;-0.20;99.90;;;;;;5115692;28;19995;-69
2023/01/20 01:21:27;;;;;;;;;;;-0.20;99.90;;;;;;5105556;28;19951;-69
2023/01/20 01:23:53;;;;;;;;;;;-0.20;99.90;;;;;;5105438;28;19927;-69
2023/01/20 01:26:20;;;;;;;;;;;-0.20;99.90;;;;;;5104704;28;19959;-69
2023/01/20 01:28:49;;;;;;;;;;;-0.10;99.90;;;;;;5105739;28;19983;-69
2023/01/20 01:31:17;;;;;;;;;;;-0.20;99.90;;;;;;5105229;28;19920;-69
2023/01/20 01:33:44;;;;;;;;;;;-0.10;99.90;;;;;;5105473;28;19962;-69
2023/01/20 01:36:12;;;;;;;;;;;-0.20;99.90;;;;;;5104846;28;19987;-69
2023/01/20 01:38:39;;;;;;;;;;;-0.10;99.90;;;;;;5110503;28;19919;-69
2023/01/20 01:41:06;;;;;;;;;;;-0.10;99.90;;;;;;5125769;28;19927;-68
2023/01/20 01:43:33;;;;;;;;;;;-0.10;99.90;;;;;;5105167;28;19959;-69
2023/01/20 01:46:01;;;;;;;;;;;-0.10;99.90;;;;;;5115218;28;19983;-71
2023/01/20 01:48:29;;;;;;;;;;;-0.10;99.90;;;;;;5125544;28;19920;-68
2023/01/20 01:50:57;;;;;;;;;;;-0.10;99.90;;;;;;5125646;28;19920;-69
2023/01/20 01:53:24;;;;;;;;;;;-0.10;99.90;;;;;;5125157;28;19987;-69
2023/01/20 01:55:53;;;;;;;;;;;-0.10;99.90;;;;;;5125153;28;19919;-69
2023/01/20 01:58:23;;;;;;;;;;;0.00;99.90;;;;;;5118208;28;20211;-69
2023/01/20 02:00:49;;;;;;;;;;;-0.10;99.90;;;;;;5105136;28;19920;-69
2023/01/20 02:03:18;;;;;;;;;;;0.00;99.90;;;;;;5114985;28;19991;-69
2023/01/20 02:05:44;;;;;;;;;;;-0.10;99.90;;;;;;5104667;28;19991;-69
2023/01/20 02:08:11;;;;;;;;;;;0.00;99.90;;;;;;5120885;28;20007;-69
2023/01/20 02:10:38;;;;;;;;;;;-0.10;99.90;;;;;;5110200;28;19952;-69
2023/01/20 02:13:04;;;;;;;;;;;0.00;99.90;;;;;;5123593;28;19947;-69
2023/01/20 02:15:35;;;;;;;;;;;0.00;99.90;;;;;;5124695;28;19983;-69
2023/01/20 02:18:11;;;;;;;;;;;0.00;99.90;;;;;;5124454;28;19983;-69
2023/01/20 02:21:05;;;;;;;;;;;0.00;99.90;;;;;;5124069;28;19920;-69
2023/01/20 02:23:43;;;;;;;;;;;-0.10;99.90;;;;;;5099846;28;19926;-69
2023/01/20 02:26:21;;;;;;;;;;;0.00;99.90;;;;;;5124423;28;19926;-69
2023/01/20 02:29:09;;;;;;;;;;;0.00;99.90;;;;;;5124682;28;19926;-70
2023/01/20 02:31:54;;;;;;;;;;;-0.10;99.90;;;;;;5124803;28;19926;-69
2023/01/20 02:34:27;;;;;;;;;;;0.00;99.90;;;;;;5124514;28;19920;-69
2023/01/20 02:36:55;;;;;;;;;;;0.00;99.90;;;;;;5123945;28;19919;-69
2023/01/20 02:39:25;;;;;;;;;;;0.00;99.90;;;;;;5123562;28;19926;-69
2023/01/20 02:41:55;;;;;;;;;;;0.00;99.90;;;;;;5122706;28;20251;-69
2023/01/20 02:44:24;;;;;;;;;;;0.00;99.90;;;;;;5104308;28;19920;-69
2023/01/20 02:46:53;;;;;;;;;;;-0.10;99.90;;;;;;5103562;28;19951;-69
2023/01/20 02:49:23;;;;;;;;;;;0.00;99.90;;;;;;5104308;28;20119;-69
2023/01/20 02:51:53;;;;;;;;;;;-0.10;99.90;;;;;;5108590;28;19983;-69
2023/01/20 02:54:20;;;;;;;;;;;-0.10;99.90;;;;;;5113383;28;19920;-69
2023/01/20 02:56:48;;;;;;;;;;;-0.10;99.90;;;;;;5103421;28;19920;-69
2023/01/20 02:59:17;;;;;;;;;;;0.00;99.90;;;;;;5103777;28;20226;-69
2023/01/20 03:01:46;;;;;;;;;;;0.00;99.90;;;;;;5107857;28;19926;-69
2023/01/20 03:04:13;;;;;;;;;;;0.00;99.90;;;;;;5124119;28;19924;-69
2023/01/20 03:06:43;;;;;;;;;;;0.00;99.90;;;;;;5123435;28;19919;-69
2023/01/20 03:09:14;;;;;;;;;;;0.00;99.90;;;;;;5124437;28;19983;-69
2023/01/20 03:11:43;;;;;;;;;;;0.00;99.90;;;;;;5124459;28;19983;-69
2023/01/20 03:14:11;;;;;;;;;;;0.00;99.90;;;;;;5124258;28;19962;-70
2023/01/20 03:16:38;;;;;;;;;;;0.00;99.90;;;;;;5123615;28;19920;-69
2023/01/20 03:19:05;;;;;;;;;;;0.00;99.90;;;;;;5124247;28;19955;-69
2023/01/20 03:21:32;;;;;;;;;;;0.00;99.90;;;;;;5124217;28;19919;-69
2023/01/20 03:24:00;;;;;;;;;;;0.00;99.90;;;;;;5124117;28;19926;-69
2023/01/20 03:26:29;;;;;;;;;;;0.00;99.90;;;;;;5123212;28;20282;-69
2023/01/20 03:28:56;;;;;;;;;;;0.00;99.90;;;;;;5123936;28;19919;-69
2023/01/20 03:31:25;;;;;;;;;;;0.00;99.90;;;;;;5125554;28;19926;-70
2023/01/20 03:33:53;;;;;;;;;;;0.00;99.90;;;;;;5107828;28;19927;-69
2023/01/20 03:36:21;;;;;;;;;;;0.00;99.90;;;;;;5107153;28;19991;-69
2023/01/20 03:38:49;;;;;;;;;;;0.00;99.90;;;;;;5117692;28;19972;-69
2023/01/20 03:41:23;;;;;;;;;;;0.00;99.90;;;;;;5128152;28;19920;-69
2023/01/20 03:43:55;;;;;;;;;;;0.00;99.90;;;;;;5127533;28;19942;-69
2023/01/20 03:46:27;;;;;;;;;;;0.10;99.90;;;;;;5127438;28;19919;-69
2023/01/20 03:48:58;;;;;;;;;;;0.10;99.90;;;;;;5128174;28;20095;-69
2023/01/20 03:51:27;;;;;;;;;;;0.00;99.90;;;;;;5128025;28;19942;-69
2023/01/20 03:53:56;;;;;;;;;;;0.10;99.90;;;;;;5127764;28;19951;-69
2023/01/20 03:56:25;;;;;;;;;;;0.00;99.90;;;;;;5126840;28;19926;-69
2023/01/20 03:58:53;;;;;;;;;;;0.00;99.90;;;;;;5127380;28;19997;-69
2023/01/20 04:01:22;;;;;;;;;;;0.00;99.90;;;;;;5127660;28;19920;-69
2023/01/20 04:03:50;;;;;;;;;;;0.00;99.90;;;;;;5127507;28;19945;-69
2023/01/20 04:06:18;;;;;;;;;;;0.00;99.90;;;;;;5126902;28;19951;-69
2023/01/20 04:08:47;;;;;;;;;;;0.00;99.90;;;;;;5127640;28;19920;-69
2023/01/20 04:11:14;;;;;;;;;;;0.00;99.90;;;;;;5127559;28;19970;-69
2023/01/20 04:13:41;;;;;;;;;;;0.00;99.90;;;;;;5106728;28;19987;-69
2023/01/20 04:16:12;;;;;;;;;;;0.00;99.90;;;;;;5106309;28;19987;-69
2023/01/20 04:18:40;;;;;;;;;;;0.00;99.90;;;;;;5107010;28;19955;-69
2023/01/20 04:21:08;;;;;;;;;;;0.00;99.90;;;;;;5107000;28;19994;-69
2023/01/20 04:23:36;;;;;;;;;;;0.10;99.90;;;;;;5107290;28;19920;-69
2023/01/20 04:26:03;;;;;;;;;;;0.10;99.90;;;;;;5126382;28;19943;-69
2023/01/20 04:28:30;;;;;;;;;;;0.10;99.90;;;;;;5127156;28;19920;-69
2023/01/20 04:30:57;;;;;;;;;;;0.10;99.90;;;;;;5127039;28;19919;-69
2023/01/20 04:33:25;;;;;;;;;;;0.10;99.90;;;;;;5127096;28;19919;-69
2023/01/20 04:35:51;;;;;;;;;;;0.10;99.90;;;;;;5126341;28;19919;-69
2023/01/20 04:38:24;;;;;;;;;;;0.00;99.90;;;;;;5125657;28;19926;-69
2023/01/20 04:40:51;;;;;;;;;;;0.10;99.90;;;;;;5126932;28;20045;-69
2023/01/20 04:43:18;;;;;;;;;;;0.00;99.90;;;;;;5126021;28;19987;-70
2023/01/20 04:45:44;;;;;;;;;;;0.00;99.90;;;;;;5126495;28;19919;-71
2023/01/20 04:48:11;;;;;;;;;;;0.00;99.90;;;;;;5126276;28;20002;-69
2023/01/20 04:50:40;;;;;;;;;;;0.00;99.90;;;;;;5126410;28;20207;-69
2023/01/20 04:53:09;;;;;;;;;;;0.10;99.90;;;;;;5112081;28;19926;-69
2023/01/20 04:55:36;;;;;;;;;;;0.00;99.90;;;;;;5126489;28;20115;-71
2023/01/20 04:58:02;;;;;;;;;;;0.00;99.90;;;;;;5125845;28;19950;-69
2023/01/20 05:00:29;;;;;;;;;;;0.10;99.90;;;;;;5126412;28;19966;-69
2023/01/20 05:02:56;;;;;;;;;;;0.00;99.90;;;;;;5126287;28;20250;-69
2023/01/20 05:05:23;;;;;;;;;;;0.00;99.90;;;;;;5126115;28;19920;-69
2023/01/20 05:07:53;;;;;;;;;;;0.10;99.90;;;;;;5125958;28;19955;-69
2023/01/20 05:10:19;;;;;;;;;;;0.10;99.90;;;;;;5126401;28;19945;-68
2023/01/20 05:12:46;;;;;;;;;;;0.00;99.90;;;;;;5126110;28;19982;-69
2023/01/20 05:15:12;;;;;;;;;;;0.10;99.90;;;;;;5126158;28;20131;-69
2023/01/20 05:17:39;;;;;;;;;;;0.10;99.90;;;;;;5125269;28;19927;-69
2023/01/20 05:20:06;;;;;;;;;;;0.10;99.90;;;;;;5125858;28;19920;-69
2023/01/20 05:22:33;;;;;;;;;;;0.10;99.90;;;;;;5105409;28;19936;-69
2023/01/20 05:25:01;;;;;;;;;;;0.10;99.90;;;;;;5105354;28;19920;-69
2023/01/20 05:27:27;;;;;;;;;;;0.10;99.90;;;;;;5104976;28;19983;-69
2023/01/20 05:29:54;;;;;;;;;;;0.10;99.90;;;;;;5124409;28;19919;-69
2023/01/20 05:32:20;;;;;;;;;;;0.10;99.90;;;;;;5125686;28;19991;-69
2023/01/20 05:34:47;;;;;;;;;;;0.10;99.90;;;;;;5125474;28;19962;-69
2023/01/20 05:37:19;;;;;;;;;;;0.10;99.90;;;;;;5124021;28;20531;-69
2023/01/20 05:39:46;;;;;;;;;;;0.00;99.90;;;;;;5125883;28;19957;-69
2023/01/20 05:42:14;;;;;;;;;;;0.10;99.90;;;;;;5125551;28;19955;-69
2023/01/20 05:44:41;;;;;;;;;;;0.00;99.90;;;;;;5125453;28;19920;-69
2023/01/20 05:47:07;;;;;;;;;;;0.00;99.90;;;;;;5124756;28;19993;-68
2023/01/20 05:49:34;;;;;;;;;;;0.00;99.90;;;;;;5125557;28;19978;-68
2023/01/20 05:52:01;;;;;;;;;;;0.00;99.90;;;;;;5125167;28;19990;-68
2023/01/20 05:54:27;;;;;;;;;;;0.00;99.90;;;;;;5113068;28;19958;-69
2023/01/20 05:56:54;;;;;;;;;;;0.10;99.90;;;;;;5103973;28;20259;-68
2023/01/20 05:59:22;;;;;;;;;;;0.00;99.90;;;;;;5114704;28;19927;-68
2023/01/20 06:01:49;;;;;;;;;;;0.00;99.90;;;;;;5111179;28;19920;-68
2023/01/20 06:04:15;;;;;;;;;;;0.00;99.90;;;;;;5108249;28;19927;-68
2023/01/20 06:06:42;;;;;;;;;;;0.00;99.90;;;;;;5119181;28;19983;-70
2023/01/20 06:09:09;;;;;;;;;;;0.10;99.90;;;;;;5125078;28;19955;-68
2023/01/20 06:11:36;;;;;;;;;;;0.00;99.90;;;;;;5125068;28;19965;-68
2023/01/20 06:14:03;;;;;;;;;;;0.10;99.90;;;;;;5124597;28;20022;-69
2023/01/20 06:16:31;;;;;;;;;;;0.00;99.90;;;;;;5124059;28;20168;-67
2023/01/20 06:18:57;;;;;;;;;;;0.00;99.90;;;;;;5124646;28;19990;-68
2023/01/20 06:21:24;;;;;;;;;;;0.00;99.90;;;;;;5124380;28;19919;-68
2023/01/20 06:23:52;;;;;;;;;;;0.00;99.90;;;;;;5124289;28;19920;-68
2023/01/20 06:26:19;;;;;;;;;;;0.00;99.90;;;;;;5123788;28;20194;-69
2023/01/20 06:28:45;;;;;;;;;;;0.00;99.90;;;;;;5104438;28;19956;-69
2023/01/20 06:31:13;;;;;;;;;;;0.00;99.90;;;;;;5112205;28;19962;-69
2023/01/20 06:33:41;;;;;;;;;;;0.10;99.90;;;;;;5124598;28;19926;-68
2023/01/20 06:36:09;;;;;;;;;;;0.10;99.90;;;;;;5123801;28;19983;-69
2023/01/20 06:38:36;;;;;;;;;;;0.10;99.90;;;;;;5124749;28;19919;-69
2023/01/20 06:41:03;;;;;;;;;;;0.10;99.90;;;;;;5124278;28;20238;-68
2023/01/20 06:43:31;;;;;;;;;;;0.00;99.90;;;;;;5121439;28;19920;-69
2023/01/20 06:45:58;;;;;;;;;;;-0.10;99.90;;;;;;5124328;28;19931;-69
2023/01/20 06:48:25;;;;;;;;;;;-0.10;99.90;;;;;;5123951;28;19920;-68
2023/01/20 06:50:53;;;;;;;;;;;0.00;99.90;;;;;;5124596;28;19919;-69
2023/01/20 06:53:19;;;;;;;;;;;0.00;99.90;;;;;;5124508;28;19920;-69
2023/01/20 06:55:53;;;;;;;;;;;0.00;99.90;;;;;;5124240;28;19982;-69
2023/01/20 06:58:19;;;;;;;;;;;-0.10;99.90;;;;;;5123961;28;20211;-69
2023/01/20 07:00:46;;;;;;;;;;;0.00;99.90;;;;;;5124114;28;19991;-69
2023/01/20 07:03:13;;;;;;;;;;;0.00;99.90;;;;;;5124076;28;20177;-69
2023/01/20 07:05:39;;;;;;;;;;;0.00;99.90;;;;;;5125115;28;19986;-68
2023/01/20 07:08:07;;;;;;;;;;;0.00;99.90;;;;;;5130854;28;19987;-69
2023/01/20 07:10:34;;;;;;;;;;;0.00;99.90;;;;;;5131138;28;19958;-69
2023/01/20 07:13:00;;;;;;;;;;;0.00;99.90;;;;;;5131184;28;19926;-69
2023/01/20 07:15:27;;;;;;;;;;;0.00;99.90;;;;;;5131062;28;19920;-68
2023/01/20 07:17:53;;;;;;;;;;;0.10;99.90;;;;;;5130205;28;19991;-68
2023/01/20 07:20:20;;;;;;;;;;;0.00;99.90;;;;;;5131008;28;20003;-69
2023/01/20 07:22:47;;;;;;;;;;;0.10;99.90;;;;;;5130788;28;19982;-69
2023/01/20 07:25:15;;;;;;;;;;;0.10;99.90;;;;;;5130620;28;19920;-68
2023/01/20 07:27:42;;;;;;;;;;;0.10;99.90;;;;;;5130245;28;20203;-69
2023/01/20 07:30:09;;;;;;;;;;;0.10;99.90;;;;;;5130982;28;19920;-70
2023/01/20 07:32:36;;;;;;;;;;;0.10;99.90;;;;;;5130944;28;19987;-70
2023/01/20 07:35:03;;;;;;;;;;;0.10;99.90;;;;;;5130454;28;19955;-70
2023/01/20 07:37:29;;;;;;;;;;;0.10;99.90;;;;;;5129847;28;19919;-70
2023/01/20 07:39:56;;;;;;;;;;;0.10;99.90;;;;;;5130593;28;19987;-70
2023/01/20 07:42:24;;;;;;;;;;;0.10;99.90;;;;;;5130476;28;19920;-69
2023/01/20 07:44:50;;;;;;;;;;;0.10;99.90;;;;;;5130359;28;20122;-69
2023/01/20 07:47:17;;;;;;;;;;;0.10;99.90;;;;;;5130204;28;19991;-70
2023/01/20 07:49:44;;;;;;;;;;;0.20;99.90;;;;;;5130621;28;19983;-70
2023/01/20 07:52:10;;;;;;;;;;;0.10;99.90;;;;;;5130233;28;19920;-70
2023/01/20 07:54:37;;;;;;;;;;;0.00;99.90;;;;;;5130739;28;19995;-70
2023/01/20 07:57:04;;;;;;;;;;;0.00;99.90;;;;;;5130036;28;19920;-69
2023/01/20 07:59:31;;;;;;;;;;;0.00;99.90;;;;;;5130556;28;19977;-70
2023/01/20 08:01:58;;;;;;;;;;;0.00;99.90;;;;;;5130336;28;19919;-69
2023/01/20 08:04:25;;;;;;;;;;;0.00;99.90;;;;;;5130366;28;20003;-70
2023/01/20 08:06:51;;;;;;;;;;;0.00;99.90;;;;;;5129566;28;19987;-68
2023/01/20 08:09:18;;;;;;;;;;;0.00;99.90;;;;;;5130596;28;19951;-70
2023/01/20 08:11:45;;;;;;;;;;;0.00;99.90;;;;;;5130570;28;19968;-70
2023/01/20 08:14:11;;;;;;;;;;;0.10;99.90;;;;;;5130491;28;19991;-68
2023/01/20 08:16:39;;;;;;;;;;;0.10;99.90;;;;;;5129447;28;19991;-70
2023/01/20 08:19:06;;;;;;;;;;;0.10;99.90;;;;;;5125806;28;20166;-70
2023/01/20 08:21:33;;;;;;;;;;;0.20;99.90;;;;;;5127145;28;20002;-70
2023/01/20 08:24:00;;;;;;;;;;;0.10;99.90;;;;;;5126734;28;19976;-69
2023/01/20 08:26:28;;;;;;;;;;;0.10;99.90;;;;;;5126373;28;20002;-70
2023/01/20 08:28:55;;;;;;;;;;;0.20;99.90;;;;;;5126742;28;19920;-70
2023/01/20 08:31:22;;;;;;;;;;;0.10;99.90;;;;;;5126862;28;20122;-69
2023/01/20 08:33:52;;;;;;;;;;;0.10;99.90;;;;;;5126991;28;19927;-69
2023/01/20 08:36:19;;;;;;;;;;;0.20;99.90;;;;;;5126179;28;19920;-69
2023/01/20 08:38:46;;;;;;;;;;;0.20;99.90;;;;;;5125847;28;19947;-70
2023/01/20 08:41:14;;;;;;;;;;;0.20;99.90;;;;;;5126578;28;19920;-70
2023/01/20 08:43:41;;;;;;;;;;;0.20;99.90;;;;;;5126639;28;20111;-69
2023/01/20 08:46:09;;;;;;;;;;;0.20;99.90;;;;;;5125810;28;19983;-69
2023/01/20 08:48:36;;;;;;;;;;;0.10;99.90;;;;;;5126689;28;19926;-70
2023/01/20 08:51:06;;;;;;;;;;;0.20;99.90;;;;;;5126733;28;19919;-69
2023/01/20 08:53:33;;;;;;;;;;;0.20;99.90;;;;;;5126704;28;19920;-69
2023/01/20 08:56:00;;;;;;;;;;;0.20;99.90;;;;;;5125813;28;20027;-69
2023/01/20 08:58:27;;;;;;;;;;;0.30;99.90;;;;;;5126019;28;19920;-70
2023/01/20 09:00:54;;;;;;;;;;;0.20;99.90;;;;;;5126436;28;19955;-70
2023/01/20 09:03:21;;;;;;;;;;;0.20;99.90;;;;;;5126479;28;20128;-70
2023/01/20 09:05:47;;;;;;;;;;;0.30;99.90;;;;;;5125686;28;20199;-70
2023/01/20 09:08:16;;;;;;;;;;;0.30;99.90;;;;;;5125977;28;19986;-70
2023/01/20 09:10:42;;;;;;;;;;;0.30;99.90;;;;;;5126338;28;19920;-69
2023/01/20 09:13:09;;;;;;;;;;;0.30;99.90;;;;;;5125894;28;20233;-69
2023/01/20 09:15:36;;;;;;;;;;;0.30;99.90;;;;;;5126068;28;19978;-69
2023/01/20 09:18:02;;;;;;;;;;;0.30;99.90;;;;;;5125667;28;19962;-70
2023/01/20 09:20:29;;;;;;;;;;;0.30;99.90;;;;;;5126203;28;19986;-70
2023/01/20 09:22:56;;;;;;;;;;;0.30;99.90;;;;;;5125840;28;20123;-69
2023/01/20 09:25:24;;;;;;;;;;;0.40;99.90;;;;;;5126163;28;19946;-70
2023/01/20 09:27:50;;;;;;;;;;;0.40;99.90;;;;;;5125213;28;20262;-70
2023/01/20 09:30:17;;;;;;;;;;;0.40;99.90;;;;;;5125661;28;19983;-70
2023/01/20 09:32:44;;;;;;;;;;;0.40;99.90;;;;;;5125835;28;19920;-70
2023/01/20 09:35:10;;;;;;;;;;;0.40;99.90;;;;;;5125398;28;19982;-70
2023/01/20 09:46:08;;;;;;;;;;;0.50;99.90;;;;;;5104551;28;19950;-69
2023/01/20 09:54:13;;;;;;;;;;;0.50;99.90;;;;;;5104988;28;19958;-70
2023/01/20 09:56:41;;;;;;;;;;;0.50;99.90;;;;;;5104235;28;19942;-70
2023/01/20 09:59:11;;;;;;;;;;;0.50;99.90;;;;;;5104955;28;19927;-70
2023/01/20 10:01:40;;;;;;;;;;;0.50;99.90;;;;;;5104560;28;20208;-70
2023/01/20 10:04:09;;;;;;;;;;;0.60;99.90;;;;;;5104540;28;19987;-70
2023/01/20 10:06:39;;;;;;;;;;;0.60;99.90;;;;;;5104108;28;19958;-70
2023/01/20 10:09:09;;;;;;;;;;;0.60;99.90;;;;;;5104543;28;19947;-70
2023/01/20 10:11:38;;;;;;;;;;;0.60;99.90;;;;;;5104862;28;19987;-69
2023/01/20 10:14:07;;;;;;;;;;;0.60;99.90;;;;;;5104378;28;19928;-70
2023/01/20 10:16:37;;;;;;;;;;;0.60;99.90;;;;;;5103883;28;19989;-70
2023/01/20 10:19:08;;;;;;;;;;;0.60;99.90;;;;;;5104395;28;20180;-70
2023/01/20 10:21:36;;;;;;;;;;;0.50;99.90;;;;;;5104610;28;19920;-69
2023/01/20 10:24:08;;;;;;;;;;;0.50;99.90;;;;;;5104161;28;19958;-70
2023/01/20 10:26:37;;;;;;;;;;;0.50;99.90;;;;;;5103887;28;19926;-70
2023/01/20 10:29:06;;;;;;;;;;;0.50;99.90;;;;;;5104172;28;19927;-70
2023/01/20 10:31:36;;;;;;;;;;;0.50;99.90;;;;;;5104078;28;19995;-70
2023/01/20 10:34:08;;;;;;;;;;;0.50;99.90;;;;;;5104225;28;19951;-70
2023/01/20 10:36:34;;;;;;;;;;;0.50;99.90;;;;;;5103575;28;20108;-70
2023/01/20 10:39:04;;;;;;;;;;;0.50;99.90;;;;;;5104320;28;19924;-70
2023/01/20 10:41:34;;;;;;;;;;;0.40;99.90;;;;;;5103563;28;20123;-70
2023/01/20 10:44:01;;;;;;;;;;;0.40;99.90;;;;;;5103936;28;19920;-70
2023/01/20 10:46:38;;;;;;;;;;;0.50;99.90;;;;;;5110336;28;19983;-70
2023/01/20 10:49:15;;;;;;;;;;;0.40;99.90;;;;;;5124755;28;19987;-69
2023/01/20 10:51:44;;;;;;;;;;;0.40;99.90;;;;;;5124310;28;20233;-70
2023/01/20 10:54:15;;;;;;;;;;;0.50;99.90;;;;;;5124439;28;20253;-69
2023/01/20 10:56:43;;;;;;;;;;;0.50;99.90;;;;;;5123545;28;20104;-70
2023/01/20 10:59:13;;;;;;;;;;;0.50;99.90;;;;;;5124421;28;19983;-70
2023/01/20 11:01:40;;;;;;;;;;;0.50;99.90;;;;;;5124319;28;19920;-70
2023/01/20 11:04:11;;;;;;;;;;;0.50;99.90;;;;;;5123993;28;19920;-70
2023/01/20 11:06:38;;;;;;;;;;;0.50;99.90;;;;;;5123674;28;19920;-70
2023/01/20 11:09:17;;;;;;;;;;;0.50;99.90;;;;;;5124110;28;19919;-69
2023/01/20 11:11:44;;;;;;;;;;;0.50;99.90;;;;;;5124418;28;19919;-70
2023/01/20 11:14:10;;;;;;;;;;;0.50;99.90;;;;;;5124301;28;20115;-70
2023/01/20 11:16:39;;;;;;;;;;;0.50;99.90;;;;;;5123286;28;20226;-70
2023/01/20 11:19:06;;;;;;;;;;;0.50;99.90;;;;;;5124265;28;19927;-70
2023/01/20 11:21:35;;;;;;;;;;;0.50;99.90;;;;;;5123986;28;19920;-70
2023/01/20 11:24:03;;;;;;;;;;;0.50;99.90;;;;;;5123981;28;19924;-70
2023/01/20 11:26:31;;;;;;;;;;;0.50;99.90;;;;;;5123505;28;19951;-70
2023/01/20 11:28:59;;;;;;;;;;;0.50;99.90;;;;;;5123901;28;19919;-70
2023/01/20 11:31:36;;;;;;;;;;;0.50;99.90;;;;;;5123863;28;19920;-68
2023/01/20 11:34:03;;;;;;;;;;;0.50;99.90;;;;;;5103726;28;19919;-70
2023/01/20 11:36:30;;;;;;;;;;;0.60;99.90;;;;;;5103076;28;19926;-69
2023/01/20 11:38:58;;;;;;;;;;;0.60;99.90;;;;;;5103847;28;20082;-70
2023/01/20 11:41:25;;;;;;;;;;;0.60;99.90;;;;;;5103801;28;19920;-70
2023/01/20 11:43:54;;;;;;;;;;;0.60;99.90;;;;;;5103347;28;19920;-70
2023/01/20 11:46:22;;;;;;;;;;;0.60;99.90;;;;;;5109257;28;19924;-70
2023/01/20 11:48:49;;;;;;;;;;;0.70;99.90;;;;;;5124060;28;19924;-69
2023/01/20 11:51:20;;;;;;;;;;;0.60;99.90;;;;;;5123710;28;19927;-70
2023/01/20 11:53:47;;;;;;;;;;;0.60;99.90;;;;;;5126948;28;20204;-70
2023/01/20 11:56:20;;;;;;;;;;;0.60;99.90;;;;;;5126783;28;19919;-70
2023/01/20 11:58:51;;;;;;;;;;;0.60;99.90;;;;;;5127793;28;20112;-70
2023/01/20 12:01:21;;;;;;;;;;;0.60;99.90;;;;;;5127445;28;19919;-70
2023/01/20 12:03:55;;;;;;;;;;;0.50;99.90;;;;;;5127665;28;19924;-70
2023/01/20 12:06:24;;;;;;;;;;;0.50;99.90;;;;;;5127009;28;19983;-70
2023/01/20 12:08:52;;;;;;;;;;;0.50;99.90;;;;;;5127374;28;19919;-70
2023/01/20 12:11:23;;;;;;;;;;;0.50;99.90;;;;;;5127213;28;19982;-70
2023/01/20 12:14:27;;;;;;;;;;;0.50;99.90;;;;;;5127538;28;19983;-70
2023/01/20 12:17:14;;;;;;;;;;;0.50;99.90;;;;;;5124106;28;20254;-69
2023/01/20 12:19:47;;;;;;;;;;;0.50;99.90;;;;;;5090210;28;20115;-70
2023/01/20 12:22:18;;;;;;;;;;;0.60;99.90;;;;;;5126870;28;19987;-70
2023/01/20 12:27:35;;;;;;;;;;;0.50;99.90;;;;;;5126530;28;19938;-70
2023/01/20 12:30:03;;;;;;;;;;;0.50;99.90;;;;;;5127226;28;19962;-70
2023/01/20 12:32:32;;;;;;;;;;;0.50;99.90;;;;;;5126974;28;19920;-70
2023/01/20 12:34:58;;;;;;;;;;;0.50;99.90;;;;;;5127129;28;19926;-70
2023/01/20 12:37:28;;;;;;;;;;;0.50;99.90;;;;;;5126482;28;19926;-70
2023/01/20 12:40:03;;;;;;;;;;;0.50;99.90;;;;;;5126598;28;19928;-69
2023/01/20 12:42:51;;;;;;;;;;;0.50;99.90;;;;;;5126988;28;20145;-69
2023/01/20 12:45:25;;;;;;;;;;;0.40;99.90;;;;;;5126843;28;19958;-70
2023/01/20 12:47:59;;;;;;;;;;;0.40;99.90;;;;;;5125907;28;19919;-70
2023/01/20 12:50:32;;;;;;;;;;;0.50;99.90;;;;;;5126428;28;19983;-70
2023/01/20 12:53:09;;;;;;;;;;;0.50;99.90;;;;;;5126490;28;19926;-70
2023/01/20 12:55:39;;;;;;;;;;;0.60;99.90;;;;;;5126301;28;19920;-69
2023/01/20 12:58:15;;;;;;;;;;;0.60;99.90;;;;;;5126024;28;19987;-70
2023/01/20 13:00:56;;;;;;;;;;;0.60;99.90;;;;;;5126515;28;20112;-70
2023/01/20 13:03:41;;;;;;;;;;;0.60;99.90;;;;;;5105363;28;20096;-70
2023/01/20 13:06:19;;;;;;;;;;;0.50;99.90;;;;;;5105376;28;19982;-70
2023/01/20 13:08:48;;;;;;;;;;;0.50;99.90;;;;;;5105863;28;19920;-70
2023/01/20 13:11:19;;;;;;;;;;;0.60;99.90;;;;;;5126473;28;19941;-70
2023/01/20 13:13:56;;;;;;;;;;;0.50;99.90;;;;;;5126276;28;19919;-70
2023/01/20 13:16:31;;;;;;;;;;;0.50;99.90;;;;;;5104842;28;19979;-70
2023/01/20 13:19:03;;;;;;;;;;;0.50;99.90;;;;;;5105788;28;20089;-70
2023/01/20 13:21:30;;;;;;;;;;;0.50;99.90;;;;;;5119562;28;19924;-69
2023/01/20 13:23:58;;;;;;;;;;;0.50;99.90;;;;;;5125512;28;19930;-70
2023/01/20 13:26:26;;;;;;;;;;;0.50;99.90;;;;;;5125133;28;19986;-70
2023/01/20 13:28:53;;;;;;;;;;;0.50;99.90;;;;;;5125463;28;19919;-69
2023/01/20 13:31:44;;;;;;;;;;;0.40;99.90;;;;;;5125928;28;20136;-68
2023/01/20 13:34:29;;;;;;;;;;;0.30;99.90;;;;;;5104590;28;19919;-69
2023/01/20 13:37:14;;;;;;;;;;;0.30;99.90;;;;;;5124894;28;19920;-69
2023/01/20 13:39:45;;;;;;;;;;;0.40;99.90;;;;;;5125529;28;19979;-69
2023/01/20 13:42:27;;;;;;;;;;;0.40;99.90;;;;;;5125588;28;19920;-69
2023/01/20 13:45:15;;;;;;;;;;;0.40;99.90;;;;;;5125149;28;20400;-69
2023/01/20 13:47:50;;;;;;;;;;;0.40;99.90;;;;;;5124557;28;19978;-69
2023/01/20 13:50:22;;;;;;;;;;;0.40;99.90;;;;;;5124912;28;19987;-69
2023/01/20 13:53:05;;;;;;;;;;;0.40;99.90;;;;;;5124936;28;19932;-69
2023/01/20 13:55:47;;;;;;;;;;;0.50;99.90;;;;;;5125139;28;19926;-69
2023/01/20 13:58:15;;;;;;;;;;;0.50;99.90;;;;;;5124071;28;19951;-69
2023/01/20 14:00:41;;;;;;;;;;;0.50;99.90;;;;;;5124639;28;19926;-69
2023/01/20 14:03:12;;;;;;;;;;;0.50;99.90;;;;;;5124717;28;19926;-68
2023/01/20 14:05:39;;;;;;;;;;;0.50;99.90;;;;;;5124795;28;20122;-69
2023/01/20 14:08:13;;;;;;;;;;;0.50;99.90;;;;;;5124199;28;19983;-69
2023/01/20 14:10:39;;;;;;;;;;;0.50;99.90;;;;;;5124659;28;20234;-69
2023/01/20 14:13:08;;;;;;;;;;;0.50;99.90;;;;;;5124154;28;20208;-69
2023/01/20 14:15:38;;;;;;;;;;;0.50;99.90;;;;;;5123337;28;19955;-68
2023/01/20 14:18:11;;;;;;;;;;;0.50;99.90;;;;;;5124131;28;19928;-69
2023/01/20 14:20:39;;;;;;;;;;;0.60;99.90;;;;;;5123996;28;19994;-69
2023/01/20 14:23:24;;;;;;;;;;;0.60;99.90;;;;;;5123978;28;19920;-69
2023/01/20 14:26:01;;;;;;;;;;;0.70;99.90;;;;;;5123903;28;20150;-69
2023/01/20 14:28:28;;;;;;;;;;;0.70;99.90;;;;;;5123693;28;19919;-69
2023/01/20 14:31:16;;;;;;;;;;;0.80;99.90;;;;;;5124258;28;20159;-69
2023/01/20 14:33:47;;;;;;;;;;;0.80;99.90;;;;;;5123992;28;20203;-69
2023/01/20 14:36:15;;;;;;;;;;;0.80;99.90;;;;;;5123399;28;19920;-70
2023/01/20 14:38:48;;;;;;;;;;;0.90;99.90;;;;;;5102761;28;19960;-69
2023/01/20 14:41:24;;;;;;;;;;;1.10;99.90;;;;;;5104286;28;19920;-72
2023/01/20 14:43:51;;;;;;;;;;;1.20;99.90;;;;;;5103511;28;19961;-70
2023/01/20 14:46:19;;;;;;;;;;;1.30;99.90;;;;;;5108672;28;19927;-72
2023/01/20 14:48:46;;;;;;;;;;;1.50;99.90;;;;;;5124415;28;19962;-68
2023/01/20 14:51:13;;;;;;;;;;;1.60;99.90;;;;;;5123941;28;20223;-68
2023/01/20 14:53:40;;;;;;;;;;;1.70;99.90;;;;;;5124301;28;19986;-68
2023/01/20 14:56:07;;;;;;;;;;;1.80;99.90;;;;;;5123199;28;19958;-68